Portada
METAR-TAF:

METAR-TAF

Aeroports :

Retalhuleu, Guatemala

latitud: 14-32N, longitud: 091-40W, altitud: 239 m

Observació

L'informe es va fer fa 5 hores i 15 minuts, a les 00:00 UTC
Vent 4 kt del Sud-Oest
Temperatura 27°C
Humitat 74%
Pressió 1013 hPa
Visibilitat 10 km o més
Núvols disperses a una alçada de 1800 ft

METAR: MGRT 060000Z 22004KT 9999 SCT018 27/22 Q1013 A2991 VOL. SANTA MARIA Y SANTIAGUITO EN ACTIVIDAD

Hora: 23:15 (05:15 UTC)


TAF: manca

Observacions i pronòstics meteorològics de més de 4000 aeroports (METAR i TAF).

Les estacions disponibles són els punts grocs i vermells al mapa.

Posi el ratolí al punt desitjat per veure el nom de l'estació.

Feu clic per veure les observacions i els pronòstics meteorològics.

Per canviar el mapa: feu clic els botons verds amb una creu de color negre per apropar; al botó verd amb un guió per allunyar la imatge; o en les fletxes verdes per a mapes adjacents.


METAR-TAF: